createdAt,value
2022-10-06T00:02:07.202Z,12.65
2022-10-06T00:04:37.694Z,12.63
2022-10-06T00:07:08.302Z,12.62
2022-10-06T00:09:38.660Z,12.62
2022-10-06T00:12:10.174Z,12.62
2022-10-06T00:14:40.620Z,12.63
2022-10-06T00:17:10.962Z,12.65
2022-10-06T00:19:41.303Z,12.67
2022-10-06T00:22:11.736Z,12.66
2022-10-06T00:24:42.129Z,12.66
2022-10-06T00:27:12.537Z,12.65
2022-10-06T00:29:43.303Z,12.62
2022-10-06T00:32:13.850Z,12.60
2022-10-06T00:34:44.231Z,12.59
2022-10-06T00:37:14.720Z,12.58
2022-10-06T00:39:45.232Z,12.57
2022-10-06T00:42:26.489Z,12.54
2022-10-06T00:44:58.218Z,12.53
2022-10-06T00:47:32.195Z,12.52
2022-10-06T00:50:03.501Z,12.54
2022-10-06T00:52:34.384Z,12.55
2022-10-06T00:55:09.180Z,12.56
2022-10-06T00:57:40.777Z,12.59
2022-10-06T01:00:13.035Z,12.62
2022-10-06T01:02:45.004Z,12.65
2022-10-06T01:05:19.623Z,12.68
2022-10-06T01:07:50.270Z,12.69
2022-10-06T01:10:20.824Z,12.70
2022-10-06T01:12:52.053Z,12.73
2022-10-06T01:15:23.250Z,12.75
2022-10-06T01:17:55.591Z,12.78
2022-10-06T01:20:26.610Z,12.80
2022-10-06T01:23:01.227Z,12.82
2022-10-06T01:25:32.684Z,12.84
2022-10-06T01:28:05.314Z,12.87
2022-10-06T01:30:40.610Z,12.90
2022-10-06T01:33:11.222Z,12.94
2022-10-06T01:35:41.986Z,12.96
2022-10-06T01:38:12.493Z,12.98
2022-10-06T01:40:43.385Z,13.01
2022-10-06T01:43:13.823Z,13.05
2022-10-06T01:45:46.003Z,13.12
2022-10-06T01:48:17.496Z,13.21
2022-10-06T01:50:48.047Z,13.30
2022-10-06T01:53:18.891Z,13.37
2022-10-06T01:55:49.573Z,13.47
2022-10-06T01:58:24.230Z,13.54
2022-10-06T02:00:55.142Z,13.59
2022-10-06T02:03:27.298Z,13.58
2022-10-06T02:05:59.959Z,13.53
2022-10-06T02:08:31.919Z,13.47
2022-10-06T02:11:09.624Z,13.40
2022-10-06T02:13:44.352Z,13.33
2022-10-06T02:16:14.891Z,13.28
2022-10-06T02:18:46.753Z,13.22
2022-10-06T02:21:19.829Z,13.18
2022-10-06T02:23:52.336Z,13.12
2022-10-06T02:26:23.422Z,13.08
2022-10-06T02:28:56.354Z,13.04
2022-10-06T02:31:28.554Z,13.01
2022-10-06T02:34:02.571Z,12.97
2022-10-06T02:36:35.524Z,12.94
2022-10-06T02:39:09.356Z,12.91
2022-10-06T02:41:40.724Z,12.90
2022-10-06T02:44:14.389Z,12.89
2022-10-06T02:46:47.249Z,12.89
2022-10-06T02:49:19.492Z,12.85
2022-10-06T02:51:53.095Z,12.83
2022-10-06T02:54:25.452Z,12.82
2022-10-06T02:56:57.706Z,12.83
2022-10-06T02:59:29.572Z,12.82
2022-10-06T03:02:03.500Z,12.79
2022-10-06T03:04:37.436Z,12.78
2022-10-06T03:07:10.671Z,12.76
2022-10-06T03:09:43.079Z,12.76
2022-10-06T03:12:15.109Z,12.77
2022-10-06T03:14:48.740Z,12.77
2022-10-06T03:17:21.069Z,12.75
2022-10-06T03:19:57.479Z,12.73
2022-10-06T03:22:30.841Z,12.71
2022-10-06T03:25:09.806Z,12.69
2022-10-06T03:27:41.615Z,12.69
2022-10-06T03:30:16.790Z,12.68
2022-10-06T03:37:26.509Z,12.65
2022-10-06T03:39:59.528Z,12.63
2022-10-06T03:42:32.197Z,12.62
2022-10-06T03:45:03.600Z,12.60
2022-10-06T03:47:36.844Z,12.61
2022-10-06T03:50:12.545Z,12.61
2022-10-06T03:52:45.602Z,12.60
2022-10-06T03:55:19.603Z,12.58
2022-10-06T03:57:51.673Z,12.56
2022-10-06T04:00:24.589Z,12.55
2022-10-06T04:02:57.954Z,12.54
2022-10-06T04:05:28.599Z,12.54
2022-10-06T04:08:00.769Z,12.54
2022-10-06T04:10:33.919Z,12.51
2022-10-06T04:13:07.242Z,12.50
2022-10-06T04:15:40.617Z,12.48
2022-10-06T04:18:13.688Z,12.46
2022-10-06T04:27:57.482Z,12.38
2022-10-06T04:30:28.936Z,12.27
2022-10-06T04:32:59.618Z,12.19
2022-10-06T04:35:30.190Z,12.12
2022-10-06T04:38:01.233Z,12.06
2022-10-06T04:40:31.900Z,12.01
2022-10-06T04:43:02.680Z,11.98
2022-10-06T04:45:34.428Z,11.95
2022-10-06T04:48:05.216Z,11.92
2022-10-06T04:50:36.395Z,11.88
2022-10-06T04:53:15.918Z,11.84
2022-10-06T04:55:47.198Z,11.81
2022-10-06T04:58:18.177Z,11.76
2022-10-06T05:00:51.147Z,11.66
2022-10-06T05:03:21.976Z,11.53
2022-10-06T05:05:52.752Z,11.38
2022-10-06T05:08:23.204Z,11.23
2022-10-06T05:11:01.668Z,11.07
2022-10-06T05:13:33.044Z,10.93
2022-10-06T05:16:05.446Z,10.80
2022-10-06T05:18:37.490Z,10.65
2022-10-06T05:21:12.312Z,10.52
2022-10-06T05:23:45.277Z,10.39
2022-10-06T05:26:14.831Z,10.28
2022-10-06T05:28:45.532Z,10.19
2022-10-06T05:31:17.706Z,10.12
2022-10-06T05:33:49.592Z,10.04
2022-10-06T05:36:21.721Z,9.98
2022-10-06T05:38:53.875Z,9.93
2022-10-06T05:41:26.156Z,9.85
2022-10-06T05:43:58.231Z,9.80
2022-10-06T05:46:30.517Z,9.77
2022-10-06T05:49:03.529Z,9.77
2022-10-06T05:51:36.740Z,9.78
2022-10-06T05:54:11.218Z,9.75
2022-10-06T05:56:42.215Z,9.73
2022-10-06T05:59:12.743Z,9.72
2022-10-06T06:01:44.176Z,9.72
2022-10-06T06:04:25.063Z,9.73
2022-10-06T06:06:58.594Z,9.74
2022-10-06T06:09:30.396Z,9.79
2022-10-06T06:12:02.999Z,9.84
2022-10-06T06:15:01.773Z,9.87
2022-10-06T06:17:37.067Z,9.92
2022-10-06T06:20:10.534Z,10.00
2022-10-06T06:22:41.335Z,10.09
2022-10-06T06:25:13.492Z,10.16
2022-10-06T06:27:46.127Z,10.26
2022-10-06T06:30:18.920Z,10.34
2022-10-06T06:32:50.208Z,10.41
2022-10-06T06:35:20.974Z,10.50
2022-10-06T06:37:51.580Z,10.70
2022-10-06T06:40:22.822Z,11.26
2022-10-06T06:42:54.900Z,11.59
2022-10-06T06:45:25.829Z,11.77
2022-10-06T06:48:05.864Z,12.28
2022-10-06T06:50:37.011Z,13.08
2022-10-06T06:53:09.940Z,13.83
2022-10-06T06:55:52.025Z,14.61
2022-10-06T06:58:24.740Z,15.46
2022-10-06T07:00:55.220Z,16.07
2022-10-06T07:03:55.632Z,16.62
2022-10-06T07:06:18.215Z,17.30
2022-10-06T07:08:50.654Z,17.94
2022-10-06T07:11:22.921Z,18.39
2022-10-06T07:13:57.619Z,18.79
2022-10-06T07:16:45.983Z,19.20
2022-10-06T07:19:34.851Z,19.54
2022-10-06T07:22:27.345Z,19.64
2022-10-06T07:25:07.853Z,19.89
2022-10-06T07:27:42.989Z,20.24
2022-10-06T07:30:19.247Z,20.61
2022-10-06T07:32:53.668Z,20.96
2022-10-06T07:35:26.201Z,20.95
2022-10-06T07:37:57.978Z,21.06
2022-10-06T07:40:28.679Z,21.00
2022-10-06T07:42:59.115Z,21.16
2022-10-06T07:45:39.587Z,21.29
2022-10-06T07:48:30.368Z,21.19
2022-10-06T07:51:03.154Z,20.80
2022-10-06T07:53:39.005Z,20.47
2022-10-06T07:56:23.971Z,20.04
2022-10-06T07:58:58.797Z,19.78
2022-10-06T08:01:30.190Z,19.65
2022-10-06T08:04:02.388Z,19.64
2022-10-06T08:06:32.713Z,19.53
2022-10-06T08:09:03.140Z,19.58
2022-10-06T08:11:34.039Z,19.68
2022-10-06T08:14:04.640Z,19.58
2022-10-06T08:16:35.249Z,19.27
2022-10-06T08:19:05.758Z,19.45
2022-10-06T08:21:36.244Z,19.79
2022-10-06T08:24:06.859Z,20.23
2022-10-06T08:26:37.225Z,20.68
2022-10-06T08:29:07.542Z,20.98
2022-10-06T08:31:37.955Z,21.24
2022-10-06T08:34:12.070Z,21.37
2022-10-06T08:37:02.191Z,21.35
2022-10-06T08:39:34.598Z,21.12
2022-10-06T08:42:05.265Z,20.96
2022-10-06T08:44:39.966Z,21.00
2022-10-06T08:47:15.493Z,21.16
2022-10-06T08:49:47.201Z,21.36
2022-10-06T08:52:37.305Z,21.44
2022-10-06T08:55:15.773Z,21.52
2022-10-06T08:57:51.850Z,21.63
2022-10-06T09:00:22.894Z,21.74
2022-10-06T09:02:55.422Z,21.95
2022-10-06T09:05:29.701Z,22.15
2022-10-06T09:08:16.155Z,22.25
2022-10-06T09:10:54.495Z,22.35
2022-10-06T09:13:28.768Z,22.57
2022-10-06T09:16:01.448Z,22.80
2022-10-06T09:19:03.533Z,22.87
2022-10-06T09:21:31.656Z,22.97
2022-10-06T09:24:06.168Z,22.93
2022-10-06T09:26:37.541Z,23.10
2022-10-06T09:29:08.245Z,23.39
2022-10-06T09:31:42.120Z,23.58
2022-10-06T09:34:24.628Z,23.80
2022-10-06T09:37:04.108Z,23.99
2022-10-06T09:39:37.937Z,24.01
2022-10-06T09:42:14.442Z,24.04
2022-10-06T09:44:55.038Z,24.01
2022-10-06T09:47:44.708Z,23.75
2022-10-06T09:50:22.044Z,23.71
2022-10-06T09:53:16.093Z,23.70
2022-10-06T09:55:52.029Z,23.67
2022-10-06T09:58:25.544Z,23.58
2022-10-06T10:00:57.995Z,23.58
2022-10-06T10:03:27.242Z,23.53
2022-10-06T10:06:00.008Z,23.53
2022-10-06T10:08:31.295Z,23.64
2022-10-06T10:11:36.068Z,23.89
2022-10-06T10:14:15.518Z,24.32
2022-10-06T10:16:50.919Z,24.78
2022-10-06T10:19:27.920Z,25.19
2022-10-06T10:21:59.952Z,25.54
2022-10-06T10:24:47.670Z,25.71
2022-10-06T10:27:22.133Z,25.96
2022-10-06T10:30:01.717Z,26.10
2022-10-06T10:32:44.248Z,26.09
2022-10-06T10:35:18.073Z,26.13
2022-10-06T10:37:52.036Z,26.22
2022-10-06T10:40:32.700Z,26.30
2022-10-06T10:43:13.847Z,26.51
2022-10-06T10:45:48.158Z,26.40
2022-10-06T10:48:22.221Z,26.42
2022-10-06T10:50:58.791Z,25.98
2022-10-06T10:53:38.855Z,24.97
2022-10-06T10:56:16.152Z,24.81
2022-10-06T10:58:48.144Z,25.05
2022-10-06T11:01:32.423Z,24.61
2022-10-06T11:04:03.415Z,24.70
2022-10-06T11:06:46.493Z,24.88
2022-10-06T11:09:18.846Z,25.39
2022-10-06T11:12:00.122Z,25.43
2022-10-06T11:14:45.605Z,25.65
2022-10-06T11:17:23.224Z,24.72
2022-10-06T11:19:57.815Z,24.90
2022-10-06T11:22:34.174Z,24.60
2022-10-06T11:25:19.877Z,24.72
2022-10-06T11:27:58.234Z,24.85
2022-10-06T11:30:31.242Z,24.68
2022-10-06T11:33:09.393Z,24.78
2022-10-06T11:35:43.351Z,25.53
2022-10-06T11:38:21.005Z,26.08
2022-10-06T11:41:09.868Z,26.82
2022-10-06T11:43:47.667Z,27.59
2022-10-06T11:46:34.922Z,28.21
2022-10-06T11:49:51.446Z,28.84
2022-10-06T11:52:42.270Z,29.33
2022-10-06T11:55:22.764Z,29.35
2022-10-06T12:01:11.578Z,28.57
2022-10-06T12:04:07.340Z,28.43
2022-10-06T12:07:11.326Z,28.71
2022-10-06T12:09:53.047Z,28.72
2022-10-06T12:13:31.799Z,28.58
2022-10-06T12:19:24.308Z,28.11
2022-10-06T12:28:21.770Z,28.53
2022-10-06T12:31:05.925Z,28.96
2022-10-06T12:33:42.176Z,29.15
2022-10-06T12:36:20.362Z,28.99
2022-10-06T12:39:21.161Z,28.61
2022-10-06T12:42:02.341Z,28.68
2022-10-06T12:44:38.038Z,28.80
2022-10-06T12:47:15.431Z,28.47
2022-10-06T12:49:49.280Z,28.53
2022-10-06T12:52:40.464Z,28.75
2022-10-06T12:55:18.896Z,29.35
2022-10-06T12:57:53.346Z,29.84
2022-10-06T13:00:34.610Z,30.10
2022-10-06T13:03:07.039Z,30.22
2022-10-06T13:05:38.354Z,30.42
2022-10-06T13:08:21.362Z,30.64
2022-10-06T13:10:51.805Z,30.67
2022-10-06T13:13:25.994Z,30.83
2022-10-06T13:16:00.497Z,31.05
2022-10-06T13:18:32.812Z,30.79
2022-10-06T13:21:03.467Z,30.56
2022-10-06T13:23:34.707Z,28.95
2022-10-06T13:26:06.314Z,27.33
2022-10-06T13:28:49.792Z,25.91
2022-10-06T13:31:26.724Z,24.53
2022-10-06T13:34:00.676Z,23.11
2022-10-06T13:36:32.386Z,21.90
2022-10-06T13:39:03.196Z,20.96
2022-10-06T13:41:36.150Z,20.16
2022-10-06T13:44:25.667Z,19.42
2022-10-06T13:46:58.339Z,18.75
2022-10-06T13:49:30.562Z,18.32
2022-10-06T13:52:03.443Z,17.91
2022-10-06T13:54:39.070Z,17.57
2022-10-06T13:57:35.723Z,17.32
2022-10-06T14:00:12.808Z,17.02
2022-10-06T14:02:43.621Z,16.78
2022-10-06T14:05:26.915Z,16.59
2022-10-06T14:08:00.872Z,16.39
2022-10-06T14:10:35.701Z,16.22
2022-10-06T14:13:09.061Z,16.08
2022-10-06T14:15:47.849Z,15.94
2022-10-06T14:18:24.439Z,15.84
2022-10-06T14:20:57.036Z,15.74
2022-10-06T14:23:51.535Z,15.64
2022-10-06T14:26:26.968Z,15.54
2022-10-06T14:28:57.883Z,15.44
2022-10-06T14:31:29.725Z,15.35
2022-10-06T14:34:00.449Z,15.23
2022-10-06T14:36:33.173Z,15.15
2022-10-06T14:39:05.138Z,15.06
2022-10-06T14:41:35.777Z,14.98
2022-10-06T14:44:09.483Z,14.90
2022-10-06T14:46:41.285Z,14.82
2022-10-06T14:49:13.356Z,14.75
2022-10-06T14:51:44.928Z,14.71
2022-10-06T14:54:15.667Z,14.65
2022-10-06T14:56:46.247Z,14.62
2022-10-06T14:59:18.149Z,14.56
2022-10-06T15:01:49.644Z,14.50
2022-10-06T15:04:24.261Z,14.42
2022-10-06T15:07:12.231Z,14.32
2022-10-06T15:09:43.046Z,14.23
2022-10-06T15:12:13.963Z,14.14
2022-10-06T15:14:44.421Z,14.04
2022-10-06T15:17:14.964Z,13.94
2022-10-06T15:19:45.579Z,13.87
2022-10-06T15:22:15.988Z,13.81
2022-10-06T15:24:50.395Z,13.82
2022-10-06T15:27:38.230Z,13.80
2022-10-06T15:30:11.288Z,13.73
2022-10-06T15:32:41.944Z,13.64
2022-10-06T15:35:12.630Z,13.53
2022-10-06T15:37:43.020Z,13.43
2022-10-06T15:40:13.872Z,13.32
2022-10-06T15:42:44.308Z,13.23
2022-10-06T15:45:15.202Z,13.13
2022-10-06T15:47:46.812Z,13.04
2022-10-06T15:50:18.969Z,12.98
2022-10-06T15:52:50.423Z,12.90
2022-10-06T15:55:21.108Z,12.80
2022-10-06T15:57:52.708Z,12.69
2022-10-06T16:00:23.620Z,12.61
2022-10-06T16:02:54.092Z,12.49
2022-10-06T16:05:45.937Z,12.39
2022-10-06T16:08:16.603Z,12.28
2022-10-06T16:10:51.803Z,12.18
2022-10-06T16:13:22.476Z,12.11
2022-10-06T16:15:56.115Z,12.03
2022-10-06T16:18:28.419Z,11.95
2022-10-06T16:20:58.874Z,11.88
2022-10-06T16:23:29.249Z,11.81
2022-10-06T16:26:03.859Z,11.74
2022-10-06T16:28:34.552Z,11.70
2022-10-06T16:31:06.171Z,11.66
2022-10-06T16:33:36.805Z,11.63
2022-10-06T16:36:08.446Z,11.57
2022-10-06T16:38:38.901Z,11.51
2022-10-06T16:41:09.946Z,11.44
2022-10-06T16:43:41.456Z,11.36
2022-10-06T16:46:13.087Z,11.28
2022-10-06T16:48:45.183Z,11.19
2022-10-06T16:51:17.265Z,11.10
2022-10-06T16:53:49.444Z,11.01
2022-10-06T16:56:21.702Z,10.93
2022-10-06T16:58:54.249Z,10.85
2022-10-06T17:01:25.760Z,10.76
2022-10-06T17:04:02.804Z,10.68
2022-10-06T17:06:34.510Z,10.60
2022-10-06T17:09:05.158Z,10.54
2022-10-06T17:11:36.042Z,10.48
2022-10-06T17:14:06.788Z,10.44
2022-10-06T17:16:39.721Z,10.42
2022-10-06T17:19:08.967Z,10.41
2022-10-06T17:21:46.349Z,10.38
2022-10-06T17:24:18.685Z,10.33
2022-10-06T17:26:50.313Z,10.28
2022-10-06T17:29:22.288Z,10.22
2022-10-06T17:31:59.927Z,10.20
2022-10-06T17:34:32.849Z,10.14
2022-10-06T17:37:04.245Z,10.13
2022-10-06T17:39:34.701Z,10.09
2022-10-06T17:42:05.302Z,10.04
2022-10-06T17:44:35.740Z,10.00
2022-10-06T17:47:06.969Z,9.95
2022-10-06T17:49:38.031Z,9.92
2022-10-06T17:52:08.460Z,9.88
2022-10-06T17:54:39.058Z,9.84
2022-10-06T17:57:10.003Z,9.83
2022-10-06T17:59:40.475Z,9.86
2022-10-06T18:02:14.085Z,9.87
2022-10-06T18:04:47.650Z,9.86
2022-10-06T18:07:18.430Z,9.84
2022-10-06T18:10:09.093Z,9.81
2022-10-06T18:12:41.719Z,9.79
2022-10-06T18:15:13.079Z,9.76
2022-10-06T18:17:43.650Z,9.75
2022-10-06T18:20:16.055Z,9.72
2022-10-06T18:22:48.170Z,9.70
2022-10-06T18:25:24.494Z,9.67
2022-10-06T18:27:57.226Z,9.64
2022-10-06T18:30:29.326Z,9.59
2022-10-06T18:35:29.925Z,9.59
2022-10-06T18:36:14.739Z,9.61
2022-10-06T18:38:47.373Z,9.62
2022-10-06T18:41:20.632Z,9.63
2022-10-06T18:43:51.692Z,9.62
2022-10-06T18:46:40.933Z,9.61
2022-10-06T18:49:15.711Z,9.60
2022-10-06T18:51:47.492Z,9.60
2022-10-06T18:54:22.082Z,9.59
2022-10-06T18:56:53.049Z,9.58
2022-10-06T18:59:26.368Z,9.57
2022-10-06T19:01:58.114Z,9.55
2022-10-06T19:04:29.094Z,9.53
2022-10-06T19:06:59.465Z,9.51
2022-10-06T19:09:29.915Z,9.49
2022-10-06T19:12:01.794Z,9.48
2022-10-06T19:14:35.802Z,9.48
2022-10-06T19:17:08.980Z,9.49
2022-10-06T19:19:39.430Z,9.49
2022-10-06T19:22:10.938Z,9.46
2022-10-06T19:24:43.787Z,9.43
2022-10-06T19:27:16.347Z,9.40
2022-10-06T19:29:51.410Z,9.39
2022-10-06T19:32:24.219Z,9.37
2022-10-06T19:34:58.747Z,9.36
2022-10-06T19:37:30.057Z,9.36
2022-10-06T19:40:00.643Z,9.35
2022-10-06T19:42:49.473Z,9.33
2022-10-06T19:45:21.009Z,9.34
2022-10-06T19:47:52.005Z,9.36
2022-10-06T19:50:22.655Z,9.37
2022-10-06T19:52:53.917Z,9.34
2022-10-06T19:55:25.606Z,9.32
2022-10-06T19:57:56.003Z,9.32
2022-10-06T20:00:26.539Z,9.32
2022-10-06T20:02:56.896Z,9.29
2022-10-06T20:05:27.304Z,9.30
2022-10-06T20:07:57.801Z,9.29
2022-10-06T20:10:28.451Z,9.28
2022-10-06T20:12:59.238Z,9.28
2022-10-06T20:15:29.740Z,9.30
2022-10-06T20:18:00.116Z,9.31
2022-10-06T20:20:30.821Z,9.29
2022-10-06T20:23:01.629Z,9.29
2022-10-06T20:25:34.106Z,9.27
2022-10-06T20:28:08.924Z,9.26
2022-10-06T20:30:42.228Z,9.24
2022-10-06T20:33:13.048Z,9.22
2022-10-06T20:35:43.542Z,9.18
2022-10-06T20:38:14.645Z,9.15
2022-10-06T20:40:49.270Z,9.11
2022-10-06T20:43:21.196Z,9.07
2022-10-06T20:45:55.596Z,9.04
2022-10-06T20:48:28.858Z,9.02
2022-10-06T20:50:59.677Z,9.02
2022-10-06T20:53:32.076Z,9.00
2022-10-06T20:56:04.642Z,8.96
2022-10-06T20:58:35.728Z,8.94
2022-10-06T21:01:08.300Z,8.91
2022-10-06T21:03:44.672Z,8.89
2022-10-06T21:06:16.801Z,8.87
2022-10-06T21:08:48.459Z,8.83
2022-10-06T21:11:20.468Z,8.81
2022-10-06T21:13:51.758Z,8.76
2022-10-06T21:16:24.211Z,8.73
2022-10-06T21:18:55.152Z,8.70
2022-10-06T21:21:25.708Z,8.69
2022-10-06T21:23:56.254Z,8.69
2022-10-06T21:26:27.844Z,8.69
2022-10-06T21:28:58.472Z,8.66
2022-10-06T21:31:30.586Z,8.65
2022-10-06T21:34:02.605Z,8.61
2022-10-06T21:36:33.735Z,8.57
2022-10-06T21:39:06.004Z,8.52
2022-10-06T21:41:39.255Z,8.46
2022-10-06T21:44:11.796Z,8.39
2022-10-06T21:46:43.493Z,8.33
2022-10-06T21:49:15.858Z,8.26
2022-10-06T21:51:48.329Z,8.22
2022-10-06T21:54:19.789Z,8.19
2022-10-06T21:56:51.736Z,8.17
2022-10-06T21:59:22.276Z,8.13
2022-10-06T22:01:52.955Z,8.08
2022-10-06T22:04:24.166Z,8.03
2022-10-06T22:06:54.793Z,8.01
2022-10-06T22:09:25.309Z,7.95
2022-10-06T22:11:55.908Z,7.89
2022-10-06T22:14:26.529Z,7.86
2022-10-06T22:16:57.188Z,7.86
2022-10-06T22:19:27.732Z,7.86
2022-10-06T22:21:59.822Z,7.89
2022-10-06T22:24:32.287Z,7.90
2022-10-06T22:27:04.832Z,7.89
2022-10-06T22:29:36.782Z,7.89
2022-10-06T22:32:09.875Z,7.92
2022-10-06T22:34:41.891Z,7.95
2022-10-06T22:37:13.485Z,7.99
2022-10-06T22:39:45.172Z,8.03
2022-10-06T22:42:18.138Z,8.06
2022-10-06T22:44:51.086Z,8.12
2022-10-06T22:47:22.841Z,8.16
2022-10-06T22:49:55.608Z,8.19
2022-10-06T22:52:29.053Z,8.20
2022-10-06T22:55:01.059Z,8.20
2022-10-06T22:57:32.931Z,8.19
2022-10-06T23:00:05.862Z,8.18
2022-10-06T23:02:39.904Z,8.17
2022-10-06T23:05:12.872Z,8.16
2022-10-06T23:07:45.659Z,8.15
2022-10-06T23:10:18.988Z,8.16
2022-10-06T23:12:51.272Z,8.19
2022-10-06T23:15:22.944Z,8.23
2022-10-06T23:17:55.258Z,8.26
2022-10-06T23:30:43.580Z,8.21
2022-10-06T23:33:14.182Z,8.15
2022-10-06T23:35:44.755Z,8.11
2022-10-06T23:38:15.455Z,8.10
2022-10-06T23:40:46.179Z,8.11
2022-10-06T23:43:16.764Z,8.12
2022-10-06T23:45:47.601Z,8.09
2022-10-06T23:48:19.279Z,8.06
2022-10-06T23:50:59.977Z,8.02
2022-10-06T23:53:31.719Z,7.99
